sensor_id;sensor_type;location;lat;lon;timestamp;P1;durP1;ratioP1;P2;durP2;ratioP2
54977;SDS011;40873;47.522;19.106;2023-12-20T00:00:36;30.65;;;13.38;;
54977;SDS011;40873;47.522;19.106;2023-12-20T00:03:27;34.95;;;14.45;;
54977;SDS011;40873;47.522;19.106;2023-12-20T00:05:54;30.92;;;14.63;;
54977;SDS011;40873;47.522;19.106;2023-12-20T00:08:22;30.08;;;13.18;;
54977;SDS011;40873;47.522;19.106;2023-12-20T00:10:49;38.55;;;14.75;;
54977;SDS011;40873;47.522;19.106;2023-12-20T00:13:16;41.53;;;14.77;;
54977;SDS011;40873;47.522;19.106;2023-12-20T00:15:46;38.20;;;14.88;;
54977;SDS011;40873;47.522;19.106;2023-12-20T00:18:13;44.65;;;14.80;;
54977;SDS011;40873;47.522;19.106;2023-12-20T00:20:40;39.65;;;14.02;;
54977;SDS011;40873;47.522;19.106;2023-12-20T00:23:07;36.38;;;15.13;;
54977;SDS011;40873;47.522;19.106;2023-12-20T00:25:34;40.25;;;14.90;;
54977;SDS011;40873;47.522;19.106;2023-12-20T00:28:02;61.55;;;15.40;;
54977;SDS011;40873;47.522;19.106;2023-12-20T00:30:29;40.85;;;14.52;;
54977;SDS011;40873;47.522;19.106;2023-12-20T00:32:56;44.20;;;15.63;;
54977;SDS011;40873;47.522;19.106;2023-12-20T00:35:26;35.10;;;14.05;;
54977;SDS011;40873;47.522;19.106;2023-12-20T00:37:53;39.72;;;15.52;;
54977;SDS011;40873;47.522;19.106;2023-12-20T00:40:20;43.15;;;15.15;;
54977;SDS011;40873;47.522;19.106;2023-12-20T00:42:48;41.13;;;16.10;;
54977;SDS011;40873;47.522;19.106;2023-12-20T00:45:16;36.80;;;15.18;;
54977;SDS011;40873;47.522;19.106;2023-12-20T00:47:42;40.13;;;15.05;;
54977;SDS011;40873;47.522;19.106;2023-12-20T00:50:10;32.70;;;13.43;;
54977;SDS011;40873;47.522;19.106;2023-12-20T00:52:37;46.15;;;16.83;;
54977;SDS011;40873;47.522;19.106;2023-12-20T00:55:04;39.05;;;14.90;;
54977;SDS011;40873;47.522;19.106;2023-12-20T00:57:32;34.78;;;15.30;;
54977;SDS011;40873;47.522;19.106;2023-12-20T00:59:59;48.67;;;16.15;;
54977;SDS011;40873;47.522;19.106;2023-12-20T01:02:26;45.72;;;17.02;;
54977;SDS011;40873;47.522;19.106;2023-12-20T01:04:53;36.63;;;15.45;;
54977;SDS011;40873;47.522;19.106;2023-12-20T01:07:20;45.72;;;16.17;;
54977;SDS011;40873;47.522;19.106;2023-12-20T01:09:48;43.60;;;15.85;;
54977;SDS011;40873;47.522;19.106;2023-12-20T01:12:14;43.00;;;16.65;;
54977;SDS011;40873;47.522;19.106;2023-12-20T01:14:42;46.20;;;18.33;;
54977;SDS011;40873;47.522;19.106;2023-12-20T01:17:09;47.55;;;16.85;;
54977;SDS011;40873;47.522;19.106;2023-12-20T01:19:36;46.25;;;16.33;;
54977;SDS011;40873;47.522;19.106;2023-12-20T01:22:03;47.63;;;17.45;;
54977;SDS011;40873;47.522;19.106;2023-12-20T01:24:31;46.83;;;16.77;;
54977;SDS011;40873;47.522;19.106;2023-12-20T01:26:58;45.65;;;16.02;;
54977;SDS011;40873;47.522;19.106;2023-12-20T01:29:25;49.65;;;17.40;;
54977;SDS011;40873;47.522;19.106;2023-12-20T01:31:52;48.78;;;16.05;;
54977;SDS011;40873;47.522;19.106;2023-12-20T01:34:19;46.80;;;16.88;;
54977;SDS011;40873;47.522;19.106;2023-12-20T01:36:46;44.85;;;16.75;;
54977;SDS011;40873;47.522;19.106;2023-12-20T01:39:13;48.78;;;17.40;;
54977;SDS011;40873;47.522;19.106;2023-12-20T01:41:53;43.35;;;16.35;;
54977;SDS011;40873;47.522;19.106;2023-12-20T01:44:20;47.63;;;16.38;;
54977;SDS011;40873;47.522;19.106;2023-12-20T01:46:47;55.38;;;17.33;;
54977;SDS011;40873;47.522;19.106;2023-12-20T01:49:15;47.10;;;17.50;;
54977;SDS011;40873;47.522;19.106;2023-12-20T01:51:43;54.20;;;17.95;;
54977;SDS011;40873;47.522;19.106;2023-12-20T01:54:10;56.40;;;17.42;;
54977;SDS011;40873;47.522;19.106;2023-12-20T01:56:38;52.85;;;16.08;;
54977;SDS011;40873;47.522;19.106;2023-12-20T01:59:06;70.93;;;16.90;;
54977;SDS011;40873;47.522;19.106;2023-12-20T02:01:34;54.20;;;17.52;;
54977;SDS011;40873;47.522;19.106;2023-12-20T02:04:02;58.47;;;16.13;;
54977;SDS011;40873;47.522;19.106;2023-12-20T02:06:30;57.72;;;18.92;;
54977;SDS011;40873;47.522;19.106;2023-12-20T02:08:59;62.00;;;17.58;;
54977;SDS011;40873;47.522;19.106;2023-12-20T02:11:27;60.80;;;16.10;;
54977;SDS011;40873;47.522;19.106;2023-12-20T02:13:55;72.53;;;17.05;;
54977;SDS011;40873;47.522;19.106;2023-12-20T02:16:22;78.65;;;16.80;;
54977;SDS011;40873;47.522;19.106;2023-12-20T02:18:49;75.75;;;19.20;;
54977;SDS011;40873;47.522;19.106;2023-12-20T02:21:16;62.50;;;16.88;;
54977;SDS011;40873;47.522;19.106;2023-12-20T02:23:43;69.20;;;19.25;;
54977;SDS011;40873;47.522;19.106;2023-12-20T02:26:10;55.38;;;16.83;;
54977;SDS011;40873;47.522;19.106;2023-12-20T02:28:37;66.20;;;19.17;;
54977;SDS011;40873;47.522;19.106;2023-12-20T02:31:04;55.70;;;18.27;;
54977;SDS011;40873;47.522;19.106;2023-12-20T02:33:31;57.08;;;17.95;;
54977;SDS011;40873;47.522;19.106;2023-12-20T02:35:59;77.55;;;18.38;;
54977;SDS011;40873;47.522;19.106;2023-12-20T02:38:25;75.35;;;20.42;;
54977;SDS011;40873;47.522;19.106;2023-12-20T02:40:53;90.03;;;19.85;;
54977;SDS011;40873;47.522;19.106;2023-12-20T02:43:19;107.78;;;19.10;;
54977;SDS011;40873;47.522;19.106;2023-12-20T02:45:47;78.13;;;19.38;;
54977;SDS011;40873;47.522;19.106;2023-12-20T02:48:13;121.80;;;22.73;;
54977;SDS011;40873;47.522;19.106;2023-12-20T02:50:41;99.65;;;20.85;;
54977;SDS011;40873;47.522;19.106;2023-12-20T02:53:08;78.63;;;19.55;;
54977;SDS011;40873;47.522;19.106;2023-12-20T02:55:35;72.13;;;19.50;;
54977;SDS011;40873;47.522;19.106;2023-12-20T02:58:02;67.45;;;19.95;;
54977;SDS011;40873;47.522;19.106;2023-12-20T03:00:29;88.15;;;22.50;;
54977;SDS011;40873;47.522;19.106;2023-12-20T03:02:56;73.20;;;21.33;;
54977;SDS011;40873;47.522;19.106;2023-12-20T03:05:23;84.90;;;19.83;;
54977;SDS011;40873;47.522;19.106;2023-12-20T03:07:50;71.55;;;19.48;;
54977;SDS011;40873;47.522;19.106;2023-12-20T03:10:18;66.28;;;21.20;;
54977;SDS011;40873;47.522;19.106;2023-12-20T03:12:52;55.90;;;18.23;;
54977;SDS011;40873;47.522;19.106;2023-12-20T03:15:19;65.22;;;21.52;;
54977;SDS011;40873;47.522;19.106;2023-12-20T03:17:46;81.90;;;21.58;;
54977;SDS011;40873;47.522;19.106;2023-12-20T03:20:14;65.78;;;19.50;;
54977;SDS011;40873;47.522;19.106;2023-12-20T03:22:41;55.92;;;20.05;;
54977;SDS011;40873;47.522;19.106;2023-12-20T03:25:08;61.42;;;17.65;;
54977;SDS011;40873;47.522;19.106;2023-12-20T03:27:36;80.28;;;20.02;;
54977;SDS011;40873;47.522;19.106;2023-12-20T03:30:05;58.80;;;19.35;;
54977;SDS011;40873;47.522;19.106;2023-12-20T03:32:33;75.18;;;21.27;;
54977;SDS011;40873;47.522;19.106;2023-12-20T03:35:00;69.78;;;20.48;;
54977;SDS011;40873;47.522;19.106;2023-12-20T03:37:27;48.58;;;17.90;;
54977;SDS011;40873;47.522;19.106;2023-12-20T03:39:54;76.55;;;21.55;;
54977;SDS011;40873;47.522;19.106;2023-12-20T03:42:21;49.65;;;17.50;;
54977;SDS011;40873;47.522;19.106;2023-12-20T03:44:49;69.53;;;19.25;;
54977;SDS011;40873;47.522;19.106;2023-12-20T03:47:16;56.50;;;18.67;;
54977;SDS011;40873;47.522;19.106;2023-12-20T03:49:43;57.33;;;20.45;;
54977;SDS011;40873;47.522;19.106;2023-12-20T03:52:10;53.90;;;18.85;;
54977;SDS011;40873;47.522;19.106;2023-12-20T03:54:37;61.10;;;19.83;;
54977;SDS011;40873;47.522;19.106;2023-12-20T03:57:04;68.38;;;19.52;;
54977;SDS011;40873;47.522;19.106;2023-12-20T03:59:34;47.65;;;18.33;;
54977;SDS011;40873;47.522;19.106;2023-12-20T04:02:03;53.15;;;18.85;;
54977;SDS011;40873;47.522;19.106;2023-12-20T04:04:31;61.83;;;19.20;;
54977;SDS011;40873;47.522;19.106;2023-12-20T04:06:57;56.55;;;18.67;;
54977;SDS011;40873;47.522;19.106;2023-12-20T04:09:26;58.72;;;20.02;;
54977;SDS011;40873;47.522;19.106;2023-12-20T04:11:53;50.30;;;16.67;;
54977;SDS011;40873;47.522;19.106;2023-12-20T04:14:20;50.13;;;17.70;;
54977;SDS011;40873;47.522;19.106;2023-12-20T04:16:47;55.00;;;18.73;;
54977;SDS011;40873;47.522;19.106;2023-12-20T04:19:14;51.67;;;17.55;;
54977;SDS011;40873;47.522;19.106;2023-12-20T04:21:41;44.80;;;16.75;;
54977;SDS011;40873;47.522;19.106;2023-12-20T04:24:08;53.40;;;19.98;;
54977;SDS011;40873;47.522;19.106;2023-12-20T04:26:35;55.75;;;19.23;;
54977;SDS011;40873;47.522;19.106;2023-12-20T04:29:02;55.08;;;18.30;;
54977;SDS011;40873;47.522;19.106;2023-12-20T04:31:29;48.72;;;19.38;;
54977;SDS011;40873;47.522;19.106;2023-12-20T04:33:56;52.30;;;18.58;;
54977;SDS011;40873;47.522;19.106;2023-12-20T04:36:23;47.40;;;18.95;;
54977;SDS011;40873;47.522;19.106;2023-12-20T04:38:53;56.28;;;18.92;;
54977;SDS011;40873;47.522;19.106;2023-12-20T04:41:20;70.82;;;19.90;;
54977;SDS011;40873;47.522;19.106;2023-12-20T04:43:47;59.67;;;18.83;;
54977;SDS011;40873;47.522;19.106;2023-12-20T04:46:14;71.70;;;17.10;;
54977;SDS011;40873;47.522;19.106;2023-12-20T04:48:41;51.17;;;19.55;;
54977;SDS011;40873;47.522;19.106;2023-12-20T04:51:08;56.25;;;18.38;;
54977;SDS011;40873;47.522;19.106;2023-12-20T04:53:35;54.92;;;18.48;;
54977;SDS011;40873;47.522;19.106;2023-12-20T04:56:02;69.30;;;20.83;;
54977;SDS011;40873;47.522;19.106;2023-12-20T04:58:29;65.75;;;20.15;;
54977;SDS011;40873;47.522;19.106;2023-12-20T05:00:56;66.88;;;19.55;;
54977;SDS011;40873;47.522;19.106;2023-12-20T05:03:24;51.60;;;18.98;;
54977;SDS011;40873;47.522;19.106;2023-12-20T05:05:50;51.53;;;19.02;;
54977;SDS011;40873;47.522;19.106;2023-12-20T05:08:18;48.00;;;17.15;;
54977;SDS011;40873;47.522;19.106;2023-12-20T05:10:45;57.95;;;18.50;;
54977;SDS011;40873;47.522;19.106;2023-12-20T05:13:12;54.72;;;18.85;;
54977;SDS011;40873;47.522;19.106;2023-12-20T05:15:38;56.28;;;20.02;;
54977;SDS011;40873;47.522;19.106;2023-12-20T05:18:06;54.47;;;19.48;;
54977;SDS011;40873;47.522;19.106;2023-12-20T05:20:33;72.68;;;20.45;;
54977;SDS011;40873;47.522;19.106;2023-12-20T05:23:00;58.42;;;17.95;;
54977;SDS011;40873;47.522;19.106;2023-12-20T05:25:27;64.07;;;18.48;;
54977;SDS011;40873;47.522;19.106;2023-12-20T05:27:54;59.47;;;20.25;;
54977;SDS011;40873;47.522;19.106;2023-12-20T05:30:22;61.47;;;19.80;;
54977;SDS011;40873;47.522;19.106;2023-12-20T05:32:49;52.75;;;18.17;;
54977;SDS011;40873;47.522;19.106;2023-12-20T05:35:17;56.78;;;18.10;;
54977;SDS011;40873;47.522;19.106;2023-12-20T05:37:46;53.05;;;18.75;;
54977;SDS011;40873;47.522;19.106;2023-12-20T05:40:13;46.47;;;17.38;;
54977;SDS011;40873;47.522;19.106;2023-12-20T05:42:43;53.35;;;19.25;;
54977;SDS011;40873;47.522;19.106;2023-12-20T05:45:10;45.35;;;17.45;;
54977;SDS011;40873;47.522;19.106;2023-12-20T05:47:37;42.28;;;17.85;;
54977;SDS011;40873;47.522;19.106;2023-12-20T05:50:04;44.13;;;19.23;;
54977;SDS011;40873;47.522;19.106;2023-12-20T05:52:32;37.75;;;18.20;;
54977;SDS011;40873;47.522;19.106;2023-12-20T05:54:59;78.22;;;33.50;;
54977;SDS011;40873;47.522;19.106;2023-12-20T05:57:28;46.60;;;20.83;;
54977;SDS011;40873;47.522;19.106;2023-12-20T05:59:55;53.47;;;20.23;;
54977;SDS011;40873;47.522;19.106;2023-12-20T06:02:22;43.55;;;17.38;;
54977;SDS011;40873;47.522;19.106;2023-12-20T06:04:49;89.43;;;19.48;;
54977;SDS011;40873;47.522;19.106;2023-12-20T06:07:16;115.13;;;21.63;;
54977;SDS011;40873;47.522;19.106;2023-12-20T06:09:46;53.42;;;19.63;;
54977;SDS011;40873;47.522;19.106;2023-12-20T06:12:13;49.95;;;18.40;;
54977;SDS011;40873;47.522;19.106;2023-12-20T06:14:40;72.97;;;20.25;;
54977;SDS011;40873;47.522;19.106;2023-12-20T06:17:07;75.05;;;21.38;;
54977;SDS011;40873;47.522;19.106;2023-12-20T06:19:34;53.97;;;17.83;;
54977;SDS011;40873;47.522;19.106;2023-12-20T06:22:01;56.78;;;20.67;;
54977;SDS011;40873;47.522;19.106;2023-12-20T06:24:28;56.72;;;20.77;;
54977;SDS011;40873;47.522;19.106;2023-12-20T06:26:56;73.97;;;20.17;;
54977;SDS011;40873;47.522;19.106;2023-12-20T06:29:23;70.72;;;22.77;;
54977;SDS011;40873;47.522;19.106;2023-12-20T06:31:50;81.82;;;21.02;;
54977;SDS011;40873;47.522;19.106;2023-12-20T06:34:17;56.95;;;20.40;;
54977;SDS011;40873;47.522;19.106;2023-12-20T06:36:44;84.80;;;22.38;;
54977;SDS011;40873;47.522;19.106;2023-12-20T06:39:11;54.58;;;20.95;;
54977;SDS011;40873;47.522;19.106;2023-12-20T06:41:39;57.25;;;20.23;;
54977;SDS011;40873;47.522;19.106;2023-12-20T06:44:06;53.20;;;22.05;;
54977;SDS011;40873;47.522;19.106;2023-12-20T06:46:33;61.25;;;21.65;;
54977;SDS011;40873;47.522;19.106;2023-12-20T06:49:00;60.92;;;20.00;;
54977;SDS011;40873;47.522;19.106;2023-12-20T06:51:28;65.72;;;22.10;;
54977;SDS011;40873;47.522;19.106;2023-12-20T06:53:55;65.40;;;23.13;;
54977;SDS011;40873;47.522;19.106;2023-12-20T06:56:22;61.25;;;22.42;;
54977;SDS011;40873;47.522;19.106;2023-12-20T06:58:49;53.67;;;20.58;;
54977;SDS011;40873;47.522;19.106;2023-12-20T07:01:16;52.67;;;21.88;;
54977;SDS011;40873;47.522;19.106;2023-12-20T07:03:44;77.45;;;23.98;;
54977;SDS011;40873;47.522;19.106;2023-12-20T07:06:11;68.05;;;20.38;;
54977;SDS011;40873;47.522;19.106;2023-12-20T07:08:38;60.17;;;22.02;;
54977;SDS011;40873;47.522;19.106;2023-12-20T07:11:06;65.35;;;20.35;;
54977;SDS011;40873;47.522;19.106;2023-12-20T07:13:35;69.85;;;22.55;;
54977;SDS011;40873;47.522;19.106;2023-12-20T07:16:02;67.57;;;20.45;;
54977;SDS011;40873;47.522;19.106;2023-12-20T07:18:29;52.75;;;20.38;;
54977;SDS011;40873;47.522;19.106;2023-12-20T07:20:56;65.28;;;21.48;;
54977;SDS011;40873;47.522;19.106;2023-12-20T07:23:23;58.90;;;20.73;;
54977;SDS011;40873;47.522;19.106;2023-12-20T07:25:52;64.22;;;20.05;;
54977;SDS011;40873;47.522;19.106;2023-12-20T07:28:19;72.10;;;21.33;;
54977;SDS011;40873;47.522;19.106;2023-12-20T07:30:46;71.32;;;21.38;;
54977;SDS011;40873;47.522;19.106;2023-12-20T07:33:16;62.55;;;22.35;;
54977;SDS011;40873;47.522;19.106;2023-12-20T07:35:43;57.08;;;20.27;;
54977;SDS011;40873;47.522;19.106;2023-12-20T07:38:12;64.53;;;22.77;;
54977;SDS011;40873;47.522;19.106;2023-12-20T07:40:39;56.15;;;20.85;;
54977;SDS011;40873;47.522;19.106;2023-12-20T07:43:06;60.50;;;22.50;;
54977;SDS011;40873;47.522;19.106;2023-12-20T07:45:33;55.92;;;20.15;;
54977;SDS011;40873;47.522;19.106;2023-12-20T07:48:02;68.70;;;23.30;;
54977;SDS011;40873;47.522;19.106;2023-12-20T07:50:30;58.03;;;20.90;;
54977;SDS011;40873;47.522;19.106;2023-12-20T07:52:57;60.28;;;22.33;;
54977;SDS011;40873;47.522;19.106;2023-12-20T07:55:26;55.63;;;20.73;;
54977;SDS011;40873;47.522;19.106;2023-12-20T07:57:53;62.08;;;22.85;;
54977;SDS011;40873;47.522;19.106;2023-12-20T08:00:21;62.60;;;21.25;;
54977;SDS011;40873;47.522;19.106;2023-12-20T08:02:49;73.05;;;21.73;;
54977;SDS011;40873;47.522;19.106;2023-12-20T08:05:16;58.25;;;23.83;;
54977;SDS011;40873;47.522;19.106;2023-12-20T08:07:44;59.50;;;21.52;;
54977;SDS011;40873;47.522;19.106;2023-12-20T08:10:12;56.13;;;22.63;;
54977;SDS011;40873;47.522;19.106;2023-12-20T08:12:39;61.88;;;20.48;;
54977;SDS011;40873;47.522;19.106;2023-12-20T08:15:06;63.85;;;23.50;;
54977;SDS011;40873;47.522;19.106;2023-12-20T08:17:33;60.53;;;23.33;;
54977;SDS011;40873;47.522;19.106;2023-12-20T08:20:01;52.42;;;19.88;;
54977;SDS011;40873;47.522;19.106;2023-12-20T08:22:28;63.08;;;21.95;;
54977;SDS011;40873;47.522;19.106;2023-12-20T08:24:55;62.78;;;23.30;;
54977;SDS011;40873;47.522;19.106;2023-12-20T08:27:22;66.32;;;24.35;;
54977;SDS011;40873;47.522;19.106;2023-12-20T08:29:52;63.38;;;23.45;;
54977;SDS011;40873;47.522;19.106;2023-12-20T08:32:19;66.82;;;23.15;;
54977;SDS011;40873;47.522;19.106;2023-12-20T08:34:46;65.53;;;23.05;;
54977;SDS011;40873;47.522;19.106;2023-12-20T08:37:13;60.10;;;22.27;;
54977;SDS011;40873;47.522;19.106;2023-12-20T08:39:40;66.53;;;25.13;;
54977;SDS011;40873;47.522;19.106;2023-12-20T08:42:11;73.97;;;23.35;;
54977;SDS011;40873;47.522;19.106;2023-12-20T08:44:38;74.43;;;24.20;;
54977;SDS011;40873;47.522;19.106;2023-12-20T08:47:05;77.28;;;23.40;;
54977;SDS011;40873;47.522;19.106;2023-12-20T08:49:32;61.40;;;22.08;;
54977;SDS011;40873;47.522;19.106;2023-12-20T08:51:59;59.25;;;22.77;;
54977;SDS011;40873;47.522;19.106;2023-12-20T08:54:26;52.67;;;22.27;;
54977;SDS011;40873;47.522;19.106;2023-12-20T08:56:53;70.05;;;24.33;;
54977;SDS011;40873;47.522;19.106;2023-12-20T08:59:20;66.03;;;23.67;;
54977;SDS011;40873;47.522;19.106;2023-12-20T09:01:47;55.78;;;24.52;;
54977;SDS011;40873;47.522;19.106;2023-12-20T09:04:20;61.70;;;25.45;;
54977;SDS011;40873;47.522;19.106;2023-12-20T09:06:48;65.65;;;25.13;;
54977;SDS011;40873;47.522;19.106;2023-12-20T09:09:17;72.47;;;26.77;;
54977;SDS011;40873;47.522;19.106;2023-12-20T09:11:44;64.43;;;25.95;;
54977;SDS011;40873;47.522;19.106;2023-12-20T09:14:13;58.75;;;23.25;;
54977;SDS011;40873;47.522;19.106;2023-12-20T09:16:39;58.40;;;23.17;;
54977;SDS011;40873;47.522;19.106;2023-12-20T09:19:07;61.80;;;25.08;;
54977;SDS011;40873;47.522;19.106;2023-12-20T09:21:34;68.18;;;24.20;;
54977;SDS011;40873;47.522;19.106;2023-12-20T09:24:01;60.35;;;23.73;;
54977;SDS011;40873;47.522;19.106;2023-12-20T09:26:28;62.28;;;23.58;;
54977;SDS011;40873;47.522;19.106;2023-12-20T09:28:55;58.85;;;23.30;;
54977;SDS011;40873;47.522;19.106;2023-12-20T09:31:22;70.57;;;27.70;;
54977;SDS011;40873;47.522;19.106;2023-12-20T09:33:49;55.22;;;24.13;;
54977;SDS011;40873;47.522;19.106;2023-12-20T09:36:16;52.58;;;22.55;;
54977;SDS011;40873;47.522;19.106;2023-12-20T09:38:43;61.55;;;24.90;;
54977;SDS011;40873;47.522;19.106;2023-12-20T09:41:12;62.58;;;24.50;;
54977;SDS011;40873;47.522;19.106;2023-12-20T09:43:40;71.78;;;26.55;;
54977;SDS011;40873;47.522;19.106;2023-12-20T09:46:08;68.53;;;25.50;;
54977;SDS011;40873;47.522;19.106;2023-12-20T09:48:38;63.40;;;25.70;;
54977;SDS011;40873;47.522;19.106;2023-12-20T09:51:07;64.30;;;24.25;;
54977;SDS011;40873;47.522;19.106;2023-12-20T09:53:34;65.15;;;24.65;;
54977;SDS011;40873;47.522;19.106;2023-12-20T09:56:04;60.50;;;24.52;;
54977;SDS011;40873;47.522;19.106;2023-12-20T09:58:35;61.47;;;24.95;;
54977;SDS011;40873;47.522;19.106;2023-12-20T10:01:03;57.83;;;26.30;;
54977;SDS011;40873;47.522;19.106;2023-12-20T10:03:31;62.35;;;25.42;;
54977;SDS011;40873;47.522;19.106;2023-12-20T10:05:58;68.72;;;29.13;;
54977;SDS011;40873;47.522;19.106;2023-12-20T10:08:27;65.32;;;26.17;;
54977;SDS011;40873;47.522;19.106;2023-12-20T10:10:56;66.05;;;25.92;;
54977;SDS011;40873;47.522;19.106;2023-12-20T10:13:29;66.40;;;26.77;;
54977;SDS011;40873;47.522;19.106;2023-12-20T10:15:56;59.88;;;26.13;;
54977;SDS011;40873;47.522;19.106;2023-12-20T10:18:24;65.72;;;26.42;;
54977;SDS011;40873;47.522;19.106;2023-12-20T10:21:04;70.35;;;27.42;;
54977;SDS011;40873;47.522;19.106;2023-12-20T10:23:33;70.47;;;27.35;;
54977;SDS011;40873;47.522;19.106;2023-12-20T10:26:01;62.83;;;28.10;;
54977;SDS011;40873;47.522;19.106;2023-12-20T10:28:32;69.30;;;25.80;;
54977;SDS011;40873;47.522;19.106;2023-12-20T10:31:01;68.63;;;26.67;;
54977;SDS011;40873;47.522;19.106;2023-12-20T10:33:30;67.80;;;28.40;;
54977;SDS011;40873;47.522;19.106;2023-12-20T10:35:59;71.43;;;26.52;;
54977;SDS011;40873;47.522;19.106;2023-12-20T10:38:26;69.72;;;28.25;;
54977;SDS011;40873;47.522;19.106;2023-12-20T10:40:56;71.55;;;29.10;;
54977;SDS011;40873;47.522;19.106;2023-12-20T10:43:28;75.47;;;29.25;;
54977;SDS011;40873;47.522;19.106;2023-12-20T10:45:56;65.03;;;28.85;;
54977;SDS011;40873;47.522;19.106;2023-12-20T10:48:23;73.18;;;29.23;;
54977;SDS011;40873;47.522;19.106;2023-12-20T10:50:56;69.05;;;29.33;;
54977;SDS011;40873;47.522;19.106;2023-12-20T10:53:24;74.97;;;29.65;;
54977;SDS011;40873;47.522;19.106;2023-12-20T10:55:52;77.30;;;29.38;;
54977;SDS011;40873;47.522;19.106;2023-12-20T10:58:22;72.85;;;29.00;;
54977;SDS011;40873;47.522;19.106;2023-12-20T11:00:50;69.75;;;27.73;;
54977;SDS011;40873;47.522;19.106;2023-12-20T11:03:26;69.80;;;27.33;;
54977;SDS011;40873;47.522;19.106;2023-12-20T11:09:25;64.50;;;25.52;;
54977;SDS011;40873;47.522;19.106;2023-12-20T11:12:09;71.43;;;27.77;;
54977;SDS011;40873;47.522;19.106;2023-12-20T11:15:00;58.15;;;25.05;;
54977;SDS011;40873;47.522;19.106;2023-12-20T11:17:31;50.42;;;21.25;;
54977;SDS011;40873;47.522;19.106;2023-12-20T11:22:30;63.63;;;25.40;;
54977;SDS011;40873;47.522;19.106;2023-12-20T11:24:58;50.58;;;19.90;;
54977;SDS011;40873;47.522;19.106;2023-12-20T11:27:30;65.70;;;26.08;;
54977;SDS011;40873;47.522;19.106;2023-12-20T11:29:58;63.85;;;27.15;;
54977;SDS011;40873;47.522;19.106;2023-12-20T11:32:28;68.40;;;27.52;;
54977;SDS011;40873;47.522;19.106;2023-12-20T11:34:59;71.63;;;26.85;;
54977;SDS011;40873;47.522;19.106;2023-12-20T11:37:36;71.47;;;27.80;;
54977;SDS011;40873;47.522;19.106;2023-12-20T11:40:07;65.18;;;27.42;;
54977;SDS011;40873;47.522;19.106;2023-12-20T11:45:09;81.43;;;28.27;;
54977;SDS011;40873;47.522;19.106;2023-12-20T11:47:49;67.20;;;27.73;;
54977;SDS011;40873;47.522;19.106;2023-12-20T11:50:18;72.13;;;27.23;;
54977;SDS011;40873;47.522;19.106;2023-12-20T11:52:47;73.55;;;28.25;;
54977;SDS011;40873;47.522;19.106;2023-12-20T11:55:15;63.05;;;25.23;;
54977;SDS011;40873;47.522;19.106;2023-12-20T11:57:43;62.45;;;27.05;;
54977;SDS011;40873;47.522;19.106;2023-12-20T12:00:11;71.47;;;28.30;;
54977;SDS011;40873;47.522;19.106;2023-12-20T12:02:38;72.82;;;27.88;;
54977;SDS011;40873;47.522;19.106;2023-12-20T12:05:11;58.10;;;25.13;;
54977;SDS011;40873;47.522;19.106;2023-12-20T12:07:39;53.60;;;22.60;;
54977;SDS011;40873;47.522;19.106;2023-12-20T12:10:06;60.20;;;25.13;;
54977;SDS011;40873;47.522;19.106;2023-12-20T12:12:34;64.57;;;24.55;;
54977;SDS011;40873;47.522;19.106;2023-12-20T12:15:02;56.47;;;24.67;;
54977;SDS011;40873;47.522;19.106;2023-12-20T12:17:29;55.08;;;24.05;;
54977;SDS011;40873;47.522;19.106;2023-12-20T12:20:03;46.88;;;21.83;;
54977;SDS011;40873;47.522;19.106;2023-12-20T12:22:31;46.58;;;21.08;;
54977;SDS011;40873;47.522;19.106;2023-12-20T12:25:08;47.78;;;20.23;;
54977;SDS011;40873;47.522;19.106;2023-12-20T12:27:41;41.83;;;18.92;;
54977;SDS011;40873;47.522;19.106;2023-12-20T12:30:09;42.97;;;18.05;;
54977;SDS011;40873;47.522;19.106;2023-12-20T12:32:37;34.42;;;15.35;;
54977;SDS011;40873;47.522;19.106;2023-12-20T12:35:05;30.80;;;15.13;;
54977;SDS011;40873;47.522;19.106;2023-12-20T12:37:34;20.70;;;11.30;;
54977;SDS011;40873;47.522;19.106;2023-12-20T12:40:03;25.30;;;11.98;;
54977;SDS011;40873;47.522;19.106;2023-12-20T12:42:32;23.23;;;11.80;;
54977;SDS011;40873;47.522;19.106;2023-12-20T12:44:59;20.27;;;10.52;;
54977;SDS011;40873;47.522;19.106;2023-12-20T12:47:26;21.27;;;10.57;;
54977;SDS011;40873;47.522;19.106;2023-12-20T12:49:53;19.15;;;10.65;;
54977;SDS011;40873;47.522;19.106;2023-12-20T12:52:21;18.98;;;9.43;;
54977;SDS011;40873;47.522;19.106;2023-12-20T12:54:48;19.38;;;10.25;;
54977;SDS011;40873;47.522;19.106;2023-12-20T12:57:15;20.10;;;10.55;;
54977;SDS011;40873;47.522;19.106;2023-12-20T12:59:43;27.65;;;12.48;;
54977;SDS011;40873;47.522;19.106;2023-12-20T13:02:13;22.70;;;10.23;;
54977;SDS011;40873;47.522;19.106;2023-12-20T13:04:40;19.30;;;9.75;;
54977;SDS011;40873;47.522;19.106;2023-12-20T13:07:09;18.35;;;9.02;;
54977;SDS011;40873;47.522;19.106;2023-12-20T13:09:39;18.33;;;8.82;;
54977;SDS011;40873;47.522;19.106;2023-12-20T13:12:06;18.20;;;9.38;;
54977;SDS011;40873;47.522;19.106;2023-12-20T13:14:34;15.57;;;8.63;;
54977;SDS011;40873;47.522;19.106;2023-12-20T13:17:03;16.13;;;9.35;;
54977;SDS011;40873;47.522;19.106;2023-12-20T13:19:30;16.63;;;8.70;;
54977;SDS011;40873;47.522;19.106;2023-12-20T13:21:58;17.38;;;9.98;;
54977;SDS011;40873;47.522;19.106;2023-12-20T13:24:25;21.33;;;9.15;;
54977;SDS011;40873;47.522;19.106;2023-12-20T13:26:52;16.73;;;8.32;;
54977;SDS011;40873;47.522;19.106;2023-12-20T13:29:19;18.15;;;8.15;;
54977;SDS011;40873;47.522;19.106;2023-12-20T13:31:47;14.57;;;8.00;;
54977;SDS011;40873;47.522;19.106;2023-12-20T13:34:14;14.70;;;8.15;;
54977;SDS011;40873;47.522;19.106;2023-12-20T13:36:42;18.63;;;9.00;;
54977;SDS011;40873;47.522;19.106;2023-12-20T13:39:12;15.90;;;7.72;;
54977;SDS011;40873;47.522;19.106;2023-12-20T13:41:39;18.50;;;9.63;;
54977;SDS011;40873;47.522;19.106;2023-12-20T13:44:06;16.20;;;8.13;;
54977;SDS011;40873;47.522;19.106;2023-12-20T13:46:33;16.38;;;8.65;;
54977;SDS011;40873;47.522;19.106;2023-12-20T13:49:00;19.55;;;9.25;;
54977;SDS011;40873;47.522;19.106;2023-12-20T13:51:28;18.70;;;8.52;;
54977;SDS011;40873;47.522;19.106;2023-12-20T13:53:55;15.30;;;8.15;;
54977;SDS011;40873;47.522;19.106;2023-12-20T13:56:22;21.73;;;10.10;;
54977;SDS011;40873;47.522;19.106;2023-12-20T13:58:49;19.63;;;8.93;;
54977;SDS011;40873;47.522;19.106;2023-12-20T14:01:17;17.42;;;8.38;;
54977;SDS011;40873;47.522;19.106;2023-12-20T14:03:44;15.18;;;8.45;;
54977;SDS011;40873;47.522;19.106;2023-12-20T14:06:11;20.10;;;9.20;;
54977;SDS011;40873;47.522;19.106;2023-12-20T14:08:40;16.17;;;8.55;;
54977;SDS011;40873;47.522;19.106;2023-12-20T14:11:08;18.15;;;8.10;;
54977;SDS011;40873;47.522;19.106;2023-12-20T14:13:35;16.52;;;7.97;;
54977;SDS011;40873;47.522;19.106;2023-12-20T14:16:03;16.92;;;8.02;;
54977;SDS011;40873;47.522;19.106;2023-12-20T14:18:30;18.65;;;8.07;;
54977;SDS011;40873;47.522;19.106;2023-12-20T14:20:57;16.77;;;8.13;;
54977;SDS011;40873;47.522;19.106;2023-12-20T14:23:24;16.63;;;8.23;;